createdAt,value
2023-05-22T00:02:28.058Z,39.90
2023-05-22T00:05:41.338Z,39.80
2023-05-22T00:08:52.764Z,39.90
2023-05-22T00:12:07.595Z,40.00
2023-05-22T00:15:20.406Z,40.00
2023-05-22T00:18:32.480Z,40.00
2023-05-22T00:21:45.026Z,40.00
2023-05-22T00:24:58.522Z,39.90
2023-05-22T00:28:10.205Z,40.00
2023-05-22T00:31:22.982Z,40.00
2023-05-22T00:34:33.454Z,40.00
2023-05-22T00:37:44.239Z,40.50
2023-05-22T00:40:56.955Z,40.10
2023-05-22T00:44:10.854Z,40.00
2023-05-22T00:47:20.623Z,40.00
2023-05-22T00:50:32.926Z,40.00
2023-05-22T00:53:45.971Z,40.10
2023-05-22T00:56:51.883Z,40.20
2023-05-22T01:00:00.704Z,40.20
2023-05-22T01:03:13.183Z,40.20
2023-05-22T01:06:23.845Z,40.30
2023-05-22T01:09:34.965Z,40.30
2023-05-22T01:12:51.347Z,40.40
2023-05-22T01:16:05.105Z,40.50
2023-05-22T01:19:20.777Z,40.50
2023-05-22T01:22:41.221Z,40.50
2023-05-22T01:26:33.294Z,40.70
2023-05-22T01:29:54.106Z,40.70
2023-05-22T01:33:11.011Z,40.70
2023-05-22T01:36:22.690Z,40.60
2023-05-22T01:39:33.558Z,40.60
2023-05-22T01:42:42.953Z,40.70
2023-05-22T01:45:54.967Z,40.60
2023-05-22T01:49:04.153Z,40.60
2023-05-22T01:52:15.958Z,40.60
2023-05-22T01:55:28.202Z,40.80
2023-05-22T01:58:41.950Z,40.80
2023-05-22T02:01:50.625Z,40.80
2023-05-22T02:05:02.359Z,40.80
2023-05-22T02:08:15.369Z,40.80
2023-05-22T02:11:27.370Z,40.70
2023-05-22T02:14:35.488Z,40.80
2023-05-22T02:17:46.175Z,40.70
2023-05-22T02:20:58.014Z,40.80
2023-05-22T02:24:11.519Z,40.70
2023-05-22T02:27:22.247Z,40.70
2023-05-22T02:30:35.946Z,40.80
2023-05-22T02:33:48.595Z,40.80
2023-05-22T02:36:56.894Z,40.70
2023-05-22T02:40:10.796Z,40.60
2023-05-22T02:43:20.713Z,40.70
2023-05-22T02:46:34.209Z,40.70
2023-05-22T02:49:44.025Z,40.70
2023-05-22T02:52:54.539Z,40.70
2023-05-22T02:56:07.943Z,40.70
2023-05-22T02:59:18.935Z,40.70
2023-05-22T03:02:34.812Z,40.70
2023-05-22T03:05:48.424Z,40.70
2023-05-22T03:08:59.562Z,40.60
2023-05-22T03:12:11.005Z,40.80
2023-05-22T03:15:21.014Z,40.80
2023-05-22T03:18:30.793Z,40.80
2023-05-22T03:21:44.075Z,40.80
2023-05-22T03:24:55.998Z,40.80
2023-05-22T03:28:08.728Z,40.90
2023-05-22T03:31:20.183Z,40.90
2023-05-22T03:34:36.312Z,40.90
2023-05-22T03:37:47.846Z,40.80
2023-05-22T03:40:58.344Z,40.90
2023-05-22T03:44:09.901Z,40.90
2023-05-22T03:47:21.126Z,40.90
2023-05-22T03:50:33.971Z,40.90
2023-05-22T03:53:46.705Z,40.90
2023-05-22T03:56:55.294Z,40.90
2023-05-22T04:00:10.227Z,40.90
2023-05-22T04:03:23.145Z,40.90
2023-05-22T04:06:33.636Z,40.90
2023-05-22T04:09:44.079Z,40.90
2023-05-22T04:12:54.670Z,40.90
2023-05-22T04:16:06.302Z,40.90
2023-05-22T04:19:20.253Z,41.00
2023-05-22T04:22:30.742Z,40.90
2023-05-22T04:25:42.144Z,41.00
2023-05-22T04:28:52.418Z,41.00
2023-05-22T04:32:04.346Z,41.00
2023-05-22T04:35:18.279Z,41.10
2023-05-22T04:38:30.875Z,40.90
2023-05-22T04:41:42.803Z,41.00
2023-05-22T04:44:54.800Z,41.00
2023-05-22T04:48:04.551Z,41.00
2023-05-22T04:51:16.341Z,41.00
2023-05-22T04:54:27.130Z,41.00
2023-05-22T04:57:38.148Z,41.00
2023-05-22T05:00:46.830Z,41.00
2023-05-22T05:03:59.558Z,41.10
2023-05-22T05:07:11.843Z,41.10
2023-05-22T05:10:25.264Z,41.20
2023-05-22T05:13:35.318Z,41.10
2023-05-22T05:16:45.906Z,41.20
2023-05-22T05:20:00.415Z,41.20
2023-05-22T05:23:11.391Z,41.20
2023-05-22T05:26:24.144Z,41.30
2023-05-22T05:29:35.816Z,41.30
2023-05-22T05:32:49.653Z,41.30
2023-05-22T05:36:01.291Z,41.40
2023-05-22T05:39:13.167Z,41.60
2023-05-22T05:42:26.315Z,41.80
2023-05-22T05:45:35.331Z,41.90
2023-05-22T05:48:48.088Z,41.90
2023-05-22T05:51:57.864Z,42.00
2023-05-22T05:55:09.527Z,42.30
2023-05-22T05:58:21.538Z,42.20
2023-05-22T06:01:33.541Z,42.30
2023-05-22T06:04:45.451Z,42.30
2023-05-22T06:07:59.474Z,42.20
2023-05-22T06:11:10.807Z,42.40
2023-05-22T06:14:18.961Z,42.40
2023-05-22T06:17:27.278Z,42.30
2023-05-22T06:20:39.444Z,42.30
2023-05-22T06:23:50.600Z,42.40
2023-05-22T06:27:05.125Z,42.40
2023-05-22T06:30:31.925Z,42.30
2023-05-22T06:33:33.426Z,42.20
2023-05-22T06:36:46.133Z,42.20
2023-05-22T06:39:58.004Z,42.30
2023-05-22T06:43:09.737Z,42.20
2023-05-22T06:46:25.062Z,42.30
2023-05-22T06:49:36.251Z,42.20
2023-05-22T06:52:46.759Z,42.20
2023-05-22T06:56:00.207Z,42.20
2023-05-22T06:59:09.370Z,42.20
2023-05-22T07:02:21.586Z,42.20
2023-05-22T07:05:31.524Z,42.10
2023-05-22T07:08:42.564Z,42.20
2023-05-22T07:11:54.397Z,42.20
2023-05-22T07:15:06.818Z,42.20
2023-05-22T07:18:17.757Z,42.00
2023-05-22T07:21:27.368Z,42.00
2023-05-22T07:24:40.696Z,42.10
2023-05-22T07:27:52.559Z,42.10
2023-05-22T07:31:03.290Z,42.10
2023-05-22T07:34:14.661Z,41.90
2023-05-22T07:37:25.813Z,42.00
2023-05-22T07:40:35.698Z,42.10
2023-05-22T07:43:47.588Z,42.00
2023-05-22T07:46:59.360Z,42.00
2023-05-22T07:50:12.508Z,42.00
2023-05-22T07:53:22.509Z,42.10
2023-05-22T07:56:33.151Z,42.00
2023-05-22T07:59:47.188Z,42.00
2023-05-22T08:02:58.178Z,42.00
2023-05-22T08:06:10.455Z,41.90
2023-05-22T08:09:22.838Z,41.90
2023-05-22T08:12:36.438Z,41.90
2023-05-22T08:15:49.701Z,41.90
2023-05-22T08:18:57.922Z,41.70
2023-05-22T08:22:06.434Z,41.80
2023-05-22T08:25:20.324Z,41.80
2023-05-22T08:28:31.408Z,41.90
2023-05-22T08:31:44.930Z,41.80
2023-05-22T08:34:59.414Z,41.70
2023-05-22T08:38:11.734Z,41.80
2023-05-22T08:41:21.876Z,41.80
2023-05-22T08:44:34.326Z,41.80
2023-05-22T08:47:46.475Z,41.70
2023-05-22T08:50:59.971Z,41.70
2023-05-22T08:54:10.840Z,41.80
2023-05-22T08:57:22.724Z,41.70
2023-05-22T09:00:32.721Z,41.70
2023-05-22T09:03:43.647Z,41.70
2023-05-22T09:06:56.841Z,41.60
2023-05-22T09:10:06.364Z,41.70
2023-05-22T09:13:22.015Z,41.70
2023-05-22T09:16:30.651Z,41.70
2023-05-22T09:19:40.657Z,41.70
2023-05-22T09:22:50.196Z,41.80
2023-05-22T09:26:01.176Z,41.70
2023-05-22T09:29:10.160Z,41.80
2023-05-22T09:32:22.173Z,41.80
2023-05-22T09:35:34.302Z,41.70
2023-05-22T09:38:46.009Z,41.80
2023-05-22T09:41:57.476Z,41.80
2023-05-22T09:45:16.459Z,41.70
2023-05-22T09:48:27.475Z,41.70
2023-05-22T09:51:37.280Z,41.70
2023-05-22T09:54:51.419Z,41.70
2023-05-22T09:58:03.765Z,42.10
2023-05-22T10:01:14.797Z,41.60
2023-05-22T10:04:25.276Z,41.60
2023-05-22T10:07:39.838Z,41.60
2023-05-22T10:10:54.085Z,41.60
2023-05-22T10:14:03.944Z,41.50
2023-05-22T10:17:13.880Z,41.50
2023-05-22T10:20:28.002Z,41.50
2023-05-22T10:23:39.941Z,41.50
2023-05-22T10:26:50.312Z,41.50
2023-05-22T10:30:04.982Z,41.50
2023-05-22T10:33:17.298Z,41.50
2023-05-22T10:36:34.758Z,41.40
2023-05-22T10:39:45.919Z,41.50
2023-05-22T10:42:56.136Z,41.50
2023-05-22T10:46:13.799Z,41.30
2023-05-22T10:49:30.880Z,41.20
2023-05-22T10:52:43.889Z,41.20
2023-05-22T10:55:59.438Z,41.30
2023-05-22T10:59:11.545Z,41.30
2023-05-22T11:02:29.349Z,41.20
2023-05-22T11:05:46.100Z,41.10
2023-05-22T11:08:59.690Z,41.20
2023-05-22T11:12:23.827Z,41.20
2023-05-22T11:15:41.048Z,41.10
2023-05-22T11:18:53.807Z,41.10
2023-05-22T11:22:08.491Z,41.00
2023-05-22T11:25:23.747Z,41.00
2023-05-22T11:28:35.215Z,41.00
2023-05-22T11:31:46.952Z,41.00
2023-05-22T11:34:56.518Z,40.80
2023-05-22T11:38:09.615Z,40.80
2023-05-22T11:41:21.996Z,40.80
2023-05-22T11:44:33.708Z,40.70
2023-05-22T11:47:46.020Z,40.60
2023-05-22T11:50:56.880Z,40.40
2023-05-22T11:54:08.672Z,40.30
2023-05-22T11:57:18.721Z,40.50
2023-05-22T12:00:30.544Z,40.40
2023-05-22T12:03:44.597Z,40.30
2023-05-22T12:06:55.202Z,40.20
2023-05-22T12:10:06.965Z,40.30
2023-05-22T12:13:16.188Z,40.70
2023-05-22T12:16:27.396Z,40.70
2023-05-22T12:19:39.842Z,40.80
2023-05-22T12:22:52.359Z,40.80
2023-05-22T12:26:11.939Z,40.90
2023-05-22T12:29:24.266Z,40.90
2023-05-22T12:32:36.467Z,40.70
2023-05-22T12:35:47.770Z,40.60
2023-05-22T12:38:59.545Z,40.30
2023-05-22T12:42:17.197Z,40.20
2023-05-22T12:45:29.541Z,40.10
2023-05-22T12:48:41.852Z,40.10
2023-05-22T12:51:51.668Z,40.30
2023-05-22T12:55:04.316Z,40.30
2023-05-22T12:58:20.664Z,39.90
2023-05-22T13:01:29.672Z,39.90
2023-05-22T13:04:41.136Z,39.80
2023-05-22T13:07:54.710Z,40.00
2023-05-22T13:11:02.777Z,40.30
2023-05-22T13:14:15.609Z,41.10
2023-05-22T13:17:27.669Z,41.50
2023-05-22T13:20:38.888Z,41.20
2023-05-22T13:23:50.481Z,41.60
2023-05-22T13:27:05.633Z,41.20
2023-05-22T13:30:17.379Z,40.30
2023-05-22T13:33:26.480Z,40.00
2023-05-22T13:36:36.458Z,40.10
2023-05-22T13:39:47.453Z,40.20
2023-05-22T13:42:58.724Z,40.40
2023-05-22T13:46:10.029Z,40.60
2023-05-22T13:49:23.066Z,40.50
2023-05-22T13:52:33.639Z,39.30
2023-05-22T13:55:43.756Z,39.60
2023-05-22T13:58:54.759Z,39.60
2023-05-22T14:02:05.916Z,39.20
2023-05-22T14:05:18.328Z,39.10
2023-05-22T14:08:30.925Z,39.20
2023-05-22T14:11:41.994Z,39.50
2023-05-22T14:14:54.236Z,38.90
2023-05-22T14:18:06.133Z,38.80
2023-05-22T14:21:20.466Z,38.60
2023-05-22T14:24:28.645Z,38.60
2023-05-22T14:27:40.024Z,38.80
2023-05-22T14:30:49.696Z,39.10
2023-05-22T14:34:02.734Z,38.40
2023-05-22T14:37:13.385Z,38.10
2023-05-22T14:40:22.756Z,38.20
2023-05-22T14:43:34.728Z,38.10
2023-05-22T14:46:47.152Z,38.10
2023-05-22T14:50:14.191Z,38.00
2023-05-22T14:53:11.252Z,38.10
2023-05-22T14:56:24.242Z,38.10
2023-05-22T14:59:37.283Z,37.80
2023-05-22T15:02:45.898Z,37.50
2023-05-22T15:05:57.411Z,37.80
2023-05-22T15:09:08.854Z,37.80
2023-05-22T15:12:22.633Z,37.70
2023-05-22T15:15:31.418Z,37.50
2023-05-22T15:18:45.804Z,37.50
2023-05-22T15:22:08.865Z,37.30
2023-05-22T15:25:12.724Z,37.60
2023-05-22T15:28:24.162Z,37.20
2023-05-22T15:31:34.271Z,37.10
2023-05-22T15:34:42.433Z,37.00
2023-05-22T15:37:54.730Z,36.90
2023-05-22T15:41:08.667Z,37.00
2023-05-22T15:44:20.342Z,36.90
2023-05-22T15:47:30.769Z,36.80
2023-05-22T15:50:43.217Z,36.60
2023-05-22T15:53:54.314Z,36.80
2023-05-22T15:57:05.442Z,37.00
2023-05-22T16:00:21.752Z,36.50
2023-05-22T16:03:31.239Z,36.10
2023-05-22T16:06:40.702Z,36.40
2023-05-22T16:09:55.388Z,36.70
2023-05-22T16:13:06.949Z,36.80
2023-05-22T16:16:17.988Z,36.30
2023-05-22T16:19:35.171Z,36.10
2023-05-22T16:22:49.184Z,36.10
2023-05-22T16:26:01.370Z,36.40
2023-05-22T16:29:17.330Z,36.10
2023-05-22T16:32:30.951Z,35.90
2023-05-22T16:35:48.343Z,35.70
2023-05-22T16:38:59.673Z,36.10
2023-05-22T16:42:14.481Z,36.30
2023-05-22T16:45:27.109Z,35.90
2023-05-22T16:48:36.039Z,35.90
2023-05-22T16:51:47.666Z,35.50
2023-05-22T16:54:59.465Z,36.10
2023-05-22T16:58:12.135Z,36.10
2023-05-22T17:01:23.075Z,35.50
2023-05-22T17:04:36.462Z,35.90
2023-05-22T17:07:51.446Z,35.70
2023-05-22T17:11:03.152Z,35.90
2023-05-22T17:14:17.031Z,35.50
2023-05-22T17:17:28.555Z,35.80
2023-05-22T17:20:42.435Z,35.50
2023-05-22T17:23:54.441Z,36.40
2023-05-22T17:27:07.232Z,35.90
2023-05-22T17:30:19.829Z,35.90
2023-05-22T17:33:31.879Z,36.00
2023-05-22T17:36:45.408Z,35.40
2023-05-22T17:39:54.970Z,36.20
2023-05-22T17:43:09.150Z,36.00
2023-05-22T17:46:20.474Z,36.10
2023-05-22T17:49:34.183Z,36.30
2023-05-22T17:52:46.456Z,35.80
2023-05-22T17:55:57.377Z,36.60
2023-05-22T17:59:09.723Z,36.20
2023-05-22T18:02:21.471Z,36.20
2023-05-22T18:05:34.144Z,36.20
2023-05-22T18:08:50.208Z,37.00
2023-05-22T18:12:02.239Z,36.40
2023-05-22T18:15:17.444Z,36.20
2023-05-22T18:18:29.196Z,36.10
2023-05-22T18:21:40.871Z,36.20
2023-05-22T18:24:52.964Z,36.20
2023-05-22T18:28:06.477Z,36.20
2023-05-22T18:31:18.416Z,35.90
2023-05-22T18:34:34.624Z,35.80
2023-05-22T18:37:48.503Z,35.70
2023-05-22T18:40:59.296Z,35.80
2023-05-22T18:47:26.453Z,35.10
2023-05-22T18:50:38.030Z,35.30
2023-05-22T18:53:48.817Z,35.00
2023-05-22T18:56:59.792Z,35.10
2023-05-22T19:00:15.499Z,34.80
2023-05-22T19:03:25.503Z,34.60
2023-05-22T19:06:34.477Z,34.60
2023-05-22T19:09:42.920Z,34.80
2023-05-22T19:12:54.772Z,35.60
2023-05-22T19:16:04.601Z,35.60
2023-05-22T19:19:16.289Z,35.70
2023-05-22T19:22:26.171Z,37.30
2023-05-22T19:25:38.015Z,38.70
2023-05-22T19:28:49.610Z,38.50
2023-05-22T19:31:59.697Z,39.60
2023-05-22T19:35:10.896Z,37.70
2023-05-22T19:38:20.749Z,38.60
2023-05-22T19:41:33.171Z,38.30
2023-05-22T19:44:45.903Z,37.80
2023-05-22T19:47:56.751Z,37.50
2023-05-22T19:51:08.698Z,37.70
2023-05-22T19:54:21.994Z,38.00
2023-05-22T19:57:31.198Z,38.70
2023-05-22T20:00:41.535Z,38.30
2023-05-22T20:03:52.043Z,38.10
2023-05-22T20:07:02.204Z,38.20
2023-05-22T20:10:16.848Z,38.20
2023-05-22T20:13:28.418Z,38.70
2023-05-22T20:16:37.858Z,38.30
2023-05-22T20:19:49.871Z,38.20
2023-05-22T20:22:59.215Z,38.70
2023-05-22T20:26:09.218Z,38.90
2023-05-22T20:29:17.512Z,38.10
2023-05-22T20:32:27.438Z,37.90
2023-05-22T20:35:41.189Z,37.80
2023-05-22T20:38:51.071Z,37.50
2023-05-22T20:42:01.961Z,37.40
2023-05-22T20:45:15.833Z,37.20
2023-05-22T20:48:28.222Z,36.90
2023-05-22T20:51:37.305Z,36.80
2023-05-22T20:54:48.625Z,36.90
2023-05-22T20:58:00.422Z,37.00
2023-05-22T21:01:13.018Z,36.90
2023-05-22T21:04:23.993Z,36.90
2023-05-22T21:07:34.961Z,36.90
2023-05-22T21:10:44.762Z,36.90
2023-05-22T21:13:56.147Z,37.00
2023-05-22T21:17:06.886Z,36.90
2023-05-22T21:20:20.619Z,36.90
2023-05-22T21:23:33.448Z,36.90
2023-05-22T21:26:43.400Z,36.90
2023-05-22T21:29:53.933Z,37.00
2023-05-22T21:33:03.778Z,37.00
2023-05-22T21:36:16.032Z,37.10
2023-05-22T21:39:25.507Z,36.80
2023-05-22T21:42:45.699Z,37.00
2023-05-22T21:49:03.318Z,37.00
2023-05-22T21:52:14.432Z,36.80
2023-05-22T21:55:25.688Z,36.70
2023-05-22T21:58:37.318Z,36.90
2023-05-22T22:01:47.441Z,37.10
2023-05-22T22:04:59.400Z,37.10
2023-05-22T22:08:10.394Z,37.10
2023-05-22T22:11:19.614Z,37.40
2023-05-22T22:14:28.308Z,37.50
2023-05-22T22:17:42.388Z,37.80
2023-05-22T22:20:57.188Z,37.60
2023-05-22T22:24:11.097Z,37.80
2023-05-22T22:27:21.955Z,38.20
2023-05-22T22:30:30.120Z,38.40
2023-05-22T22:33:41.054Z,38.50
2023-05-22T22:36:49.237Z,38.80
2023-05-22T22:39:58.508Z,38.60
2023-05-22T22:43:10.237Z,38.60
2023-05-22T22:46:19.832Z,38.70
2023-05-22T22:49:30.845Z,38.60
2023-05-22T22:52:39.644Z,38.40
2023-05-22T22:59:04.036Z,39.10
2023-05-22T23:02:13.480Z,39.00
2023-05-22T23:05:23.888Z,39.00
2023-05-22T23:08:33.789Z,39.50
2023-05-22T23:11:43.440Z,39.50
2023-05-22T23:14:53.819Z,39.70
2023-05-22T23:18:05.485Z,39.40
2023-05-22T23:21:17.260Z,39.70
2023-05-22T23:24:26.864Z,39.70
2023-05-22T23:27:39.562Z,39.70
2023-05-22T23:34:05.804Z,39.20
2023-05-22T23:37:17.464Z,39.30
2023-05-22T23:40:26.733Z,39.50
2023-05-22T23:43:37.409Z,39.30
2023-05-22T23:46:50.116Z,39.10
2023-05-22T23:50:01.491Z,39.20
2023-05-22T23:53:09.988Z,39.30
2023-05-22T23:56:18.160Z,38.90
2023-05-22T23:59:27.109Z,38.70
